TimeMST,TemperatureF,Dew PointF,Humidity,Sea Level PressureIn,VisibilityMPH,Wind Direction,Wind SpeedMPH,Gust SpeedMPH,PrecipitationIn,Events,Conditions,WindDirDegrees,DateUTC
12:52 AM,24.1,17.1,75,29.82,10.0,SE,5.8,-,N/A,,Clear,140,2014-02-19 07:52:00
1:52 AM,23.0,15.1,72,29.80,10.0,South,9.2,-,N/A,,Clear,180,2014-02-19 08:52:00
2:52 AM,30.0,18.0,61,29.75,10.0,South,9.2,-,N/A,,Clear,170,2014-02-19 09:52:00
3:52 AM,30.9,19.0,61,29.70,10.0,South,11.5,-,N/A,,Clear,170,2014-02-19 10:52:00
4:52 AM,28.9,19.9,69,29.68,10.0,SSE,8.1,-,N/A,,Clear,150,2014-02-19 11:52:00
5:52 AM,27.0,19.0,72,29.66,10.0,NNE,3.5,-,N/A,,Clear,20,2014-02-19 12:52:00
6:52 AM,28.9,19.9,69,29.64,10.0,SSW,4.6,-,N/A,,Clear,210,2014-02-19 13:52:00
7:52 AM,30.0,21.0,69,29.62,10.0,Calm,Calm,-,N/A,,Clear,0,2014-02-19 14:52:00
8:52 AM,36.0,24.1,62,29.60,10.0,SE,3.5,-,N/A,,Clear,130,2014-02-19 15:52:00
9:52 AM,41.0,24.1,51,29.55,10.0,SSW,12.7,-,N/A,,Clear,210,2014-02-19 16:52:00
10:52 AM,45.0,25.0,46,29.52,10.0,South,12.7,-,N/A,,Clear,190,2014-02-19 17:52:00
11:52 AM,54.0,23.0,30,29.46,10.0,South,13.8,-,N/A,,Clear,170,2014-02-19 18:52:00
12:52 PM,57.0,21.0,25,29.41,10.0,East,5.8,-,N/A,,Clear,100,2014-02-19 19:52:00
1:52 PM,48.0,26.1,42,29.47,10.0,NNW,39.1,50.6,N/A,,Scattered Clouds,330,2014-02-19 20:52:00
2:52 PM,41.0,28.9,62,29.55,7.0,NNW,39.1,54.1,N/A,,Mostly Cloudy,340,2014-02-19 21:52:00
3:52 PM,39.0,28.0,65,29.57,10.0,NNW,32.2,43.7,N/A,,Scattered Clouds,330,2014-02-19 22:52:00
4:52 PM,37.0,26.1,65,29.62,10.0,NNW,32.2,41.4,N/A,,Overcast,330,2014-02-19 23:52:00
5:52 PM,37.0,19.9,50,29.65,10.0,NNW,20.7,-,0.00,,Overcast,330,2014-02-20 00:52:00
6:52 PM,36.0,19.0,50,29.68,10.0,NNW,12.7,-,N/A,,Overcast,330,2014-02-20 01:52:00
7:52 PM,37.0,14.0,39,29.70,10.0,NNW,13.8,-,N/A,,Overcast,330,2014-02-20 02:52:00
8:52 PM,33.1,15.1,48,29.72,10.0,NW,8.1,-,N/A,,Overcast,320,2014-02-20 03:52:00
9:52 PM,35.1,10.9,37,29.71,10.0,NW,10.4,-,N/A,,Scattered Clouds,320,2014-02-20 04:52:00
10:52 PM,33.1,9.0,37,29.73,10.0,NW,9.2,-,N/A,,Clear,320,2014-02-20 05:52:00
11:52 PM,26.1,10.9,53,29.73,10.0,NNW,5.8,-,N/A,,Clear,330,2014-02-20 06:52:00